メインページ
METAR-TAF:

METAR-TAF

空港 :

ロングイェールビーン, ノルウェー

緯度: 78-15N, 経度: 015-28E, 海抜: 2m

現時点の気象観測

当レポートは28分前の05:50(UTC)に作成
西の風 26kt
気温 -12°C
湿度 61%
気圧 985 hPa
視程10km以上
高度3500ftの雲は散在している

METAR: ENSB 200550Z 27026KT 9999 SCT035 M12/M18 Q0985 RMK WIND 1400FT 27024KT

時間: 07:18 (06:18 UTC)

予報

予報は20日の 06時(UTC)から 21日の 06時(UTC)まで有効
西の風 20kt
視程10km以上
高度1000ftの雲はほとんどない
高度2000ftの千切れ雲あり
20日の 06時(UTC)から 20日の 08時(UTC)まで一時的に
西の風 20kt、最大30ktの突風を伴う
視程: 2000m
高度800ftの
弱いにわか雪, 低い地吹雪
20日の 08時(UTC)から 20日の 18時(UTC)まで一時的に
視程: 4000m
高度1200ftの
弱いにわか雪
20日の 22時(UTC)から 21日の 01時(UTC)まで徐々に
西の風 10kt

TAF: ENSB 2006/2106 28020KT 9999 FEW010 BKN020 TEMPO 2006/2008 28020G30KT 2000 -SHSN DRSN VV008 TEMPO 2008/2018 4000 -SHSN VV012 BECMG 2022/2101 28010KT

4,000以上の空港の気象観測と天気予報(METAR報とTAF報)

利用可能な観測所は地図上に黄色い丸と赤い丸で示す。

丸の上にカーソルを重ねると観測所名を参照できる。

次にクリックすると気象観測と天気予報を参照できる。

マップの切り替え:黒色「×」印の緑ボタンをクリックして拡大、「-」印の緑ボタンをクリックして縮小、緑色の三角印をクリックして隣りの地図に切り替え


METAR-TAF: